Terminal Aerodrome Forecast
Issued by NWS

Home | Current Version | Previous Version | Text Only | Print | Product List | Glossary Off
Versions: 1 2 3 4 5 6 7 8 9 10 11 12 13 14 15 16 17 18 19 20 21 22 23 24 25 26 27

000
FTUS45 KGGW 031100
TAFGDV
TAF
KGDV 031126Z 0312/0412 33015KT P6SM BKN025
      TEMPO 0312/0315 SCT025
     FM031500 33016KT P6SM BKN035
     FM031800 31024G34KT P6SM BKN026
     FM040300 30017KT P6SM BKN045
     FM040600 31016KT P6SM SCT045
      AMD LTD TO CLD VIS AND WIND=

USA.gov is the U.S. government's official web portal to all federal, state and local government web resources and services.